Map

Track Data

SID SEASON NUMBER BASIN SUBBASIN NAME ISO_TIME NATURE LAT LON WMO_WIND WMO_PRES WMO_AGENCY TRACK_TYPE DIST2LAND LANDFALL IFLAG USA_AGENCY USA_ATCF_ID USA_LAT USA_LON USA_RECORD USA_STATUS USA_WIND USA_PRES USA_SSHS USA_R34_NE USA_R34_SE USA_R34_SW USA_R34_NW USA_R50_NE USA_R50_SE USA_R50_SW USA_R50_NW USA_R64_NE USA_R64_SE USA_R64_SW USA_R64_NW USA_POCI USA_ROCI USA_RMW USA_EYE TOKYO_LAT TOKYO_LON TOKYO_GRADE TOKYO_WIND TOKYO_PRES TOKYO_R50_DIR TOKYO_R50_LONG TOKYO_R50_SHORT TOKYO_R30_DIR TOKYO_R30_LONG TOKYO_R30_SHORT TOKYO_LAND CMA_LAT CMA_LON CMA_CAT CMA_WIND CMA_PRES HKO_LAT HKO_LON HKO_CAT HKO_WIND HKO_PRES NEWDELHI_LAT NEWDELHI_LON NEWDELHI_GRADE NEWDELHI_WIND NEWDELHI_PRES NEWDELHI_CI NEWDELHI_DP NEWDELHI_POCI REUNION_LAT REUNION_LON REUNION_TYPE REUNION_WIND REUNION_PRES REUNION_TNUM REUNION_CI REUNION_RMW REUNION_R34_NE REUNION_R34_SE REUNION_R34_SW REUNION_R34_NW REUNION_R50_NE REUNION_R50_SE REUNION_R50_SW REUNION_R50_NW REUNION_R64_NE REUNION_R64_SE REUNION_R64_SW REUNION_R64_NW BOM_LAT BOM_LON BOM_TYPE BOM_WIND BOM_PRES BOM_TNUM BOM_CI BOM_RMW BOM_R34_NE BOM_R34_SE BOM_R34_SW BOM_R34_NW BOM_R50_NE BOM_R50_SE BOM_R50_SW BOM_R50_NW BOM_R64_NE BOM_R64_SE BOM_R64_SW BOM_R64_NW BOM_ROCI BOM_POCI BOM_EYE BOM_POS_METHOD BOM_PRES_METHOD NADI_LAT NADI_LON NADI_CAT NADI_WIND NADI_PRES WELLINGTON_LAT WELLINGTON_LON WELLINGTON_WIND WELLINGTON_PRES DS824_LAT DS824_LON DS824_STAGE DS824_WIND DS824_PRES TD9636_LAT TD9636_LON TD9636_STAGE TD9636_WIND TD9636_PRES TD9635_LAT TD9635_LON TD9635_WIND TD9635_PRES TD9635_ROCI NEUMANN_LAT NEUMANN_LON NEUMANN_CLASS NEUMANN_WIND NEUMANN_PRES MLC_LAT MLC_LON MLC_CLASS MLC_WIND MLC_PRES USA_GUST BOM_GUST BOM_GUST_PER REUNION_GUST REUNION_GUST_PER USA_SEAHGT USA_SEARAD_NE USA_SEARAD_SE USA_SEARAD_SW USA_SEARAD_NW STORM_SPEED STORM_DIR
1975255N32298 1975 93 NA NA NOT_NAMED 1975-09-11 12:00:00 TS 32.0000 -62.0000 20 hurdat_atl main 1291 1291 O_____________ hurdat_atl AL121975 32.0000 -62.0000 TD 20 -1 3 73
1975255N32298 1975 93 NA NA NOT_NAMED 1975-09-11 15:00:00 TS 32.0500 -61.8125 main 1301 1291 P_____________ AL121975 32.0500 -61.8125 TD 22 -1 4 73
1975255N32298 1975 93 NA NA NOT_NAMED 1975-09-11 18:00:00 TS 32.1000 -61.6000 25 hurdat_atl main 1301 1301 O_____________ hurdat_atl AL121975 32.1000 -61.6000 TD 25 -1 4 75
1975255N32298 1975 93 NA NA NOT_NAMED 1975-09-11 21:00:00 TS 32.1501 -61.3625 main 1302 1302 P_____________ AL121975 32.1501 -61.3625 TD 25 -1 4 73
1975255N32298 1975 93 NA NA NOT_NAMED 1975-09-12 00:00:00 TS 32.2000 -61.2000 25 hurdat_atl main 1308 1305 O_____________ hurdat_atl AL121975 32.2000 -61.2000 TD 25 -1 1 34
1975255N32298 1975 93 NA NA NOT_NAMED 1975-09-12 03:00:00 TS 32.2423 -61.2798 main 1305 1294 P_____________ AL121975 32.2423 -61.2798 TD 27 -1 1 320
1975255N32298 1975 93 NA NA NOT_NAMED 1975-09-12 06:00:00 TS 32.3000 -61.3000 30 hurdat_atl main 1294 1286 O_____________ hurdat_atl AL121975 32.3000 -61.3000 TD 30 -1 3 58
1975255N32298 1975 93 NA NA NOT_NAMED 1975-09-12 09:00:00 TS 32.4155 -60.9455 main 1294 1285 P_____________ AL121975 32.4155 -60.9455 TD 30 -1 7 74
1975255N32298 1975 93 NA NA NOT_NAMED 1975-09-12 12:00:00 TS 32.5000 -60.5000 30 hurdat_atl main 1294 1294 O_____________ hurdat_atl AL121975 32.5000 -60.5000 TD 30 -1 6 85
1975255N32298 1975 93 NA NA NOT_NAMED 1975-09-12 15:00:00 TS 32.4723 -60.2273 main 1302 1302 P_____________ AL121975 32.4723 -60.2273 TD 30 -1 4 103
1975255N32298 1975 93 NA NA NOT_NAMED 1975-09-12 18:00:00 TS 32.4000 -60.0000 30 hurdat_atl main 1319 1319 O_____________ hurdat_atl AL121975 32.4000 -60.0000 TD 30 -1 4 110
1975255N32298 1975 93 NA NA NOT_NAMED 1975-09-12 21:00:00 TS 32.3492 -59.8251 main 1336 1336 P_____________ AL121975 32.3492 -59.8251 TD 30 -1 4 103
1975255N32298 1975 93 NA NA NOT_NAMED 1975-09-13 00:00:00 TS 32.3000 -59.5000 30 hurdat_atl main 1345 1345 O_____________ hurdat_atl AL121975 32.3000 -59.5000 TD 30 -1 10 112
1975255N32298 1975 93 NA NA NOT_NAMED 1975-09-13 03:00:00 TS 31.9597 -58.6741 main 1404 1404 P_____________ AL121975 31.9597 -58.6741 TD 30 -1 13 94
1975255N32298 1975 93 NA NA NOT_NAMED 1975-09-13 06:00:00 TS 32.2000 -58.0000 30 hurdat_atl main 1410 1231 O_____________ hurdat_atl AL121975 32.2000 -58.0000 TD 30 -1 21 10
1975255N32298 1975 93 NA NA NOT_NAMED 1975-09-13 09:00:00 TS 34.0320 -58.2458 main 1221 1024 P_____________ AL121975 34.0320 -58.2458 TD 30 -1 38 354
1975255N32298 1975 93 NA NA NOT_NAMED 1975-09-13 12:00:00 TS 36.0000 -58.5000 30 hurdat_atl main 1015 979 O_____________ hurdat_atl AL121975 36.0000 -58.5000 TD 30 -1 26 7
1975255N32298 1975 93 NA NA NOT_NAMED 1975-09-13 15:00:00 TS 36.6331 -57.8663 main 990 983 P_____________ AL121975 36.6331 -57.8663 TD 30 -1 15 58
1975255N32298 1975 93 NA NA NOT_NAMED 1975-09-13 18:00:00 TS 36.8000 -56.9000 30 hurdat_atl main 998 985 O_____________ hurdat_atl AL121975 36.8000 -56.9000 TD 30 -1 16 70
1975255N32298 1975 93 NA NA NOT_NAMED 1975-09-13 21:00:00 TS 37.1575 -56.0344 main 985 982 P_____________ AL121975 37.1575 -56.0344 TD 30 -1 15 63
1975255N32298 1975 93 NA NA NOT_NAMED 1975-09-14 00:00:00 TS 37.5000 -55.2000 30 hurdat_atl main 986 978 O_____________ hurdat_atl AL121975 37.5000 -55.2000 TD 30 -1 14 61
1975255N32298 1975 93 NA NA NOT_NAMED 1975-09-14 03:00:00 TS 37.8411 -54.5058 main 981 934 P_____________ AL121975 37.8411 -54.5058 TD 27 -1 13 58
1975255N32298 1975 93 NA NA NOT_NAMED 1975-09-14 06:00:00 TS 38.2000 -53.8000 25 hurdat_atl main 934 890 O_____________ hurdat_atl AL121975 38.2000 -53.8000 TD 25 -1 16 63
1975255N32298 1975 93 NA NA NOT_NAMED 1975-09-14 09:00:00 TS 38.5791 -52.6499 main 890 850 P_____________ AL121975 38.5791 -52.6499 TD 25 -1 16 60
1975255N32298 1975 93 NA NA NOT_NAMED 1975-09-14 12:00:00 TS 39.0000 -52.0000 25 hurdat_atl main 850 791 O_____________ hurdat_atl AL121975 39.0000 -52.0000 TD 25 -1 9 2
1975255N32298 1975 93 NA NA NOT_NAMED 1975-09-14 15:00:00 TS 39.4868 -52.6013 main 790 734 P_____________ AL121975 39.4868 -52.6013 TD 22 -1 18 303
1975255N32298 1975 93 NA NA NOT_NAMED 1975-09-14 18:00:00 TS 40.0000 -54.0000 20 hurdat_atl main 734 O_____________ hurdat_atl AL121975 40.0000 -54.0000 TD 20 -1 24 296

About IBTrACS Database

This database is a web-friendly format of International Best Track Archive for Climate Stewardship (IBTrACS), a global best track data archive curated by NOAA dating back to 1842.

Updated: 2021-10-08